Cartagena de Indias, Colombia

11:16 PM COT en Septiembre 01, 2014 (GMT -0500)
Rafael Nunez | Change Station
CLOSE
Current Station
Aeropuerto
Location: Cartagena,
Altura: 39 ft
Estaciones meteorológicas cercanas

Alt 39 ft 10.45 °N, 75.52 °W | Updated 16 minutes ago

Scattered Clouds
Nubes dispersas
84 ° F
Sensación térmica 96 ° F
N
5
Viento Variable Viento desde NNE

Hoy
Alta -- | Baja -- ° F
--% Posibilidad de precipitaciones
Ayer
Alta -- | Baja -- ° F
Precip. -- pul
5:52 AM 6:11 PM
Creciente, 47% visible
Presión 29.78 pul
Visibilidad 6.2 Millas
Nubes Nubes dispersas 1500 ft
Nubes dispersas 20000 ft
Índice de calor 96 ° F
Punto de rocío 79 ° F
Humedad 84%
Precipitaciones 0.00 pul
Espesor de la nieve No disponible.
UV 0 de una escala de 12
Polen No disponible.
Calidad del aire No disponible.
Flu Activity No disponible.
METAR SKCG 020400Z 02004KT 9999 SCT015 SCT200 29/26 A2978

More Conditions Fewer Conditions

Presión 29.78 pul
Visibilidad 6.2 Millas
Nubes Nubes dispersas 1500 ft
Nubes dispersas 20000 ft
Índice de calor 96 ° F
Punto de rocío 79 ° F
Humedad 84%
Precipitaciones 0.00 pul
Espesor de la nieve No disponible.
UV 0 de una escala de 12
Polen No disponible.
Calidad del aire No disponible.
Flu Activity No disponible.
METAR SKCG 020400Z 02004KT 9999 SCT015 SCT200 29/26 A2978

More Conditions Fewer Conditions

10-Day Weather Forecast

Almanac

Astronomía

Sep. 01, 2014 Salida Puesta
Hora real 5:52 AM COT 6:11 PM COT
Crepúsculo civil 5:31 AM COT 6:32 PM COT
Crepúsculo náutico 5:06 AM COT 6:57 PM COT
Crepúsculo astronómico 4:41 AM COT 7:22 PM COT
Luna 11:25 AM COT (9/1) 11:23 PM COT (9/1)
Horas de luz 13h 01m
Horas de luz
12h 18m
Tomorrow will be 0m 34s shorter.
Creciente, 47% of the Moon is Illuminated
Sep 2
Creciente
Sep 2
Cuarto creciente
Sep 8
Luna llena
Sep 15
Cuarto menguante
Sep 24
Nueva

Extremos de hoy

Máximos del país Bajas del país

Community

WunderPhotos

Upload Photos

1,749,560 ¡fotos cargadas!

WunderBlogs® & News

Nearby

Calidad del aire

Not available.

Grosos de nieve

Not available.

Actividad de terremotos

Ciudad Distance Mag. Tiempo y dato
No hay informes recientes de la actividad sísmica.
Magnitud mínima muestra es 2,5.

Temperaturas de aguas costeras

Lugar Temperatura
Sin partes meteorológicos de las estaciones

Estaciones meteorológicas cercanas